Time;durP1;ratioP1;P1;durP2;ratioP2;P2;SDS_P1;SDS_P2;PMS_P1;PMS_P2;Temp;Humidity;BMP_temperature;BMP_pressure;BME280_temperature;BME280_humidity;BME280_pressure;Samples;Min_cycle;Max_cycle;Signal;HPM_P1;HPM_P2
2021/01/14 00:00:13;;;;;;;1.57;0.90;;;;;;;;;;5013804;28;20096;-60
2021/01/14 00:02:40;;;;;;;2.50;0.90;;;;;;;;;;5013826;28;20560;-60
2021/01/14 00:05:08;;;;;;;2.33;1.07;;;;;;;;;;5013716;28;20052;-60
2021/01/14 00:07:35;;;;;;;1.53;0.93;;;;;;;;;;5013630;28;20048;-60
2021/01/14 00:10:01;;;;;;;3.20;1.20;;;;;;;;;;5013896;28;20036;-60
2021/01/14 00:12:28;;;;;;;2.13;0.83;;;;;;;;;;5013621;28;20080;-60
2021/01/14 00:14:55;;;;;;;3.20;0.90;;;;;;;;;;5013473;28;20030;-60
2021/01/14 00:17:30;;;;;;;5.93;1.90;;;;;;;;;;5013665;28;20132;-59
2021/01/14 00:19:57;;;;;;;5.10;2.33;;;;;;;;;;5013421;28;20053;-60
2021/01/14 00:22:37;;;;;;;4.77;2.60;;;;;;;;;;5013414;28;20362;-60
2021/01/14 00:25:05;;;;;;;9.77;4.53;;;;;;;;;;5013166;28;20046;-60
2021/01/14 00:27:32;;;;;;;12.07;3.93;;;;;;;;;;5013568;28;20080;-60
2021/01/14 00:29:59;;;;;;;8.20;3.47;;;;;;;;;;5013186;28;20026;-60
2021/01/14 00:32:26;;;;;;;7.10;3.17;;;;;;;;;;5013231;28;20021;-60
2021/01/14 00:34:53;;;;;;;12.80;3.03;;;;;;;;;;5011990;28;20026;-60
2021/01/14 00:40:04;;;;;;;;;;;;;;;;;;4994347;28;20104;-60
2021/01/14 00:42:31;;;;;;;5.37;2.10;;;;;;;;;;4993622;28;19906;-59
2021/01/14 00:45:00;;;;;;;12.23;2.27;;;;;;;;;;4993600;28;20084;-60
2021/01/14 00:47:27;;;;;;;6.03;2.10;;;;;;;;;;4993459;28;20019;-60
2021/01/14 00:49:54;;;;;;;10.63;3.03;;;;;;;;;;4993472;28;20489;-60
2021/01/14 00:52:21;;;;;;;6.77;2.60;;;;;;;;;;4993506;28;20474;-60
2021/01/14 00:54:48;;;;;;;9.30;2.40;;;;;;;;;;4976000;28;20521;-59
2021/01/14 00:57:14;;;;;;;5.60;2.40;;;;;;;;;;4993289;28;20470;-59
2021/01/14 00:59:41;;;;;;;7.23;2.87;;;;;;;;;;4993308;28;20034;-60
2021/01/14 01:02:08;;;;;;;6.93;2.53;;;;;;;;;;4993346;28;20101;-59
2021/01/14 01:04:34;;;;;;;6.30;2.30;;;;;;;;;;4993229;28;20493;-59
2021/01/14 01:07:01;;;;;;;6.77;2.10;;;;;;;;;;4993122;28;20058;-59
2021/01/14 01:09:28;;;;;;;6.00;2.27;;;;;;;;;;4993310;28;20481;-59
2021/01/14 01:11:55;;;;;;;8.50;2.03;;;;;;;;;;4993255;28;20105;-59
2021/01/14 01:14:21;;;;;;;4.97;1.43;;;;;;;;;;4993263;28;20117;-59
2021/01/14 01:16:48;;;;;;;7.37;1.50;;;;;;;;;;4993199;28;20102;-59
2021/01/14 01:19:15;;;;;;;4.17;1.83;;;;;;;;;;4993134;28;20121;-58
2021/01/14 01:21:42;;;;;;;4.43;2.00;;;;;;;;;;4993224;28;20023;-58
2021/01/14 01:24:10;;;;;;;4.87;1.57;;;;;;;;;;4993052;28;20043;-58
2021/01/14 01:26:37;;;;;;;9.97;2.27;;;;;;;;;;4993027;28;20026;-59
2021/01/14 01:29:04;;;;;;;4.20;2.27;;;;;;;;;;4992983;28;20041;-58
2021/01/14 01:31:31;;;;;;;4.17;2.40;;;;;;;;;;4993132;28;20023;-59
2021/01/14 01:33:57;;;;;;;6.87;2.60;;;;;;;;;;4993070;28;20046;-58
2021/01/14 01:36:24;;;;;;;7.60;2.73;;;;;;;;;;4993088;28;20034;-59
2021/01/14 01:38:51;;;;;;;4.43;2.20;;;;;;;;;;5005338;28;20054;-59
2021/01/14 01:41:18;;;;;;;8.00;2.40;;;;;;;;;;5014175;28;20022;-59
2021/01/14 01:43:45;;;;;;;4.00;1.63;;;;;;;;;;5016167;28;20041;-59
2021/01/14 01:46:15;;;;;;;4.97;2.10;;;;;;;;;;5016128;28;20439;-59
2021/01/14 01:48:41;;;;;;;5.83;2.10;;;;;;;;;;5016149;28;20033;-59
2021/01/14 01:51:08;;;;;;;4.37;1.80;;;;;;;;;;5016212;28;20111;-59
2021/01/14 01:53:35;;;;;;;6.90;2.43;;;;;;;;;;5016104;28;20037;-59
2021/01/14 01:56:02;;;;;;;6.43;2.63;;;;;;;;;;5016009;28;20021;-59
2021/01/14 01:58:33;;;;;;;8.53;3.13;;;;;;;;;;5016067;28;20440;-58
2021/01/14 02:01:00;;;;;;;6.77;2.80;;;;;;;;;;5015922;28;20096;-59
2021/01/14 02:03:31;;;;;;;5.63;2.70;;;;;;;;;;5015849;28;20034;-58
2021/01/14 02:05:58;;;;;;;4.13;2.10;;;;;;;;;;5015755;28;20113;-59
2021/01/14 02:08:45;;;;;;;8.50;2.83;;;;;;;;;;5015815;28;20026;-59
2021/01/14 02:11:13;;;;;;;8.70;2.70;;;;;;;;;;5015805;28;20018;-59
2021/01/14 02:13:58;;;;;;;7.23;2.20;;;;;;;;;;5015685;28;20505;-59
2021/01/14 02:16:25;;;;;;;12.05;2.55;;;;;;;;;;5015766;28;20057;-58
2021/01/14 02:18:56;;;;;;;5.03;2.10;;;;;;;;;;5015648;28;20037;-58
2021/01/14 02:21:25;;;;;;;5.23;1.97;;;;;;;;;;5014372;28;20112;-58
2021/01/14 02:23:52;;;;;;;4.50;2.10;;;;;;;;;;5014184;28;20034;-58
2021/01/14 02:26:24;;;;;;;6.07;2.13;;;;;;;;;;5015517;28;20465;-58
2021/01/14 02:28:52;;;;;;;3.93;1.80;;;;;;;;;;5015331;28;20109;-58
2021/01/14 02:31:20;;;;;;;2.93;1.60;;;;;;;;;;5015382;28;20029;-58
2021/01/14 02:33:48;;;;;;;3.03;1.70;;;;;;;;;;5015339;28;20057;-58
2021/01/14 02:36:15;;;;;;;28.17;7.87;;;;;;;;;;5015538;28;20022;-58
2021/01/14 02:38:42;;;;;;;7.57;3.00;;;;;;;;;;5016559;28;20054;-58
2021/01/14 02:41:09;;;;;;;4.57;2.03;;;;;;;;;;5015324;28;20030;-58
2021/01/14 02:43:36;;;;;;;3.37;1.87;;;;;;;;;;5015083;28;20546;-58
2021/01/14 02:46:03;;;;;;;6.93;2.27;;;;;;;;;;5015093;28;20408;-58
2021/01/14 02:48:33;;;;;;;2.43;1.50;;;;;;;;;;5015037;28;20096;-58
2021/01/14 02:51:01;;;;;;;3.90;1.90;;;;;;;;;;5015060;28;20033;-58
2021/01/14 02:53:29;;;;;;;7.13;2.40;;;;;;;;;;5013764;28;20041;-58
2021/01/14 02:55:56;;;;;;;3.67;1.77;;;;;;;;;;5014962;28;20022;-58
2021/01/14 02:58:23;;;;;;;6.50;2.20;;;;;;;;;;5014899;28;20026;-58
2021/01/14 03:00:50;;;;;;;10.37;3.90;;;;;;;;;;5014872;28;20429;-58
2021/01/14 03:03:17;;;;;;;10.90;3.30;;;;;;;;;;5014693;28;20358;-58
2021/01/14 03:05:44;;;;;;;14.53;7.33;;;;;;;;;;5014692;28;20025;-58
2021/01/14 03:08:10;;;;;;;12.53;6.37;;;;;;;;;;5014776;28;20033;-58
2021/01/14 03:10:37;;;;;;;9.87;3.77;;;;;;;;;;5014667;28;20026;-58
2021/01/14 03:13:04;;;;;;;10.67;4.17;;;;;;;;;;5014671;28;20026;-58
2021/01/14 03:15:31;;;;;;;50.10;24.10;;;;;;;;;;5014614;28;20084;-58
2021/01/14 03:17:57;;;;;;;32.17;14.77;;;;;;;;;;5014513;28;20022;-58
2021/01/14 03:20:24;;;;;;;14.90;7.13;;;;;;;;;;5014483;28;20037;-58
2021/01/14 03:22:51;;;;;;;8.03;3.87;;;;;;;;;;5014742;28;20029;-58
2021/01/14 03:25:18;;;;;;;8.97;3.70;;;;;;;;;;5014328;28;20049;-58
2021/01/14 03:27:45;;;;;;;11.67;5.10;;;;;;;;;;5014253;28;20037;-58
2021/01/14 03:30:14;;;;;;;33.83;11.93;;;;;;;;;;5014320;28;20100;-57
2021/01/14 03:32:41;;;;;;;37.90;14.33;;;;;;;;;;5014305;28;20033;-58
2021/01/14 03:35:09;;;;;;;15.80;4.90;;;;;;;;;;5014277;28;20109;-58
2021/01/14 03:37:42;;;;;;;10.40;3.70;;;;;;;;;;5014147;28;20473;-57
2021/01/14 03:40:10;;;;;;;7.90;3.57;;;;;;;;;;5014704;28;20054;-57
2021/01/14 03:42:37;;;;;;;9.30;4.00;;;;;;;;;;5014115;28;20385;-57
2021/01/14 03:45:07;;;;;;;7.33;2.83;;;;;;;;;;5013929;28;20307;-58
2021/01/14 03:47:35;;;;;;;8.33;3.37;;;;;;;;;;5014065;28;20596;-58
2021/01/14 03:50:01;;;;;;;17.60;5.13;;;;;;;;;;5013908;28;20038;-58
2021/01/14 03:52:28;;;;;;;26.90;8.53;;;;;;;;;;5013885;28;20285;-58
2021/01/14 03:54:55;;;;;;;15.37;4.97;;;;;;;;;;5013994;28;20026;-58
2021/01/14 03:57:22;;;;;;;9.53;3.63;;;;;;;;;;5013729;28;20034;-58
2021/01/14 03:59:49;;;;;;;10.10;3.03;;;;;;;;;;5013751;28;20033;-58
2021/01/14 04:02:15;;;;;;;14.60;3.67;;;;;;;;;;5014088;28;20037;-58
2021/01/14 04:04:43;;;;;;;5.73;2.60;;;;;;;;;;5013689;28;20041;-58
2021/01/14 04:07:10;;;;;;;5.57;2.23;;;;;;;;;;5013817;28;20022;-58
2021/01/14 04:09:37;;;;;;;9.00;2.90;;;;;;;;;;5013746;28;20022;-58
2021/01/14 04:12:04;;;;;;;5.47;3.13;;;;;;;;;;5013591;28;20116;-58
2021/01/14 04:14:32;;;;;;;6.50;2.23;;;;;;;;;;5013530;28;20026;-58
2021/01/14 04:16:59;;;;;;;5.17;2.13;;;;;;;;;;5013443;28;20404;-58
2021/01/14 04:19:26;;;;;;;11.30;4.40;;;;;;;;;;5012247;28;20021;-58
2021/01/14 04:21:53;;;;;;;7.93;3.53;;;;;;;;;;5013461;28;20041;-58
2021/01/14 04:24:20;;;;;;;11.90;3.73;;;;;;;;;;5013891;28;20033;-58
2021/01/14 04:26:48;;;;;;;5.57;2.43;;;;;;;;;;5013319;28;20022;-58
2021/01/14 04:29:15;;;;;;;5.60;2.50;;;;;;;;;;5013193;28;20105;-58
2021/01/14 04:31:42;;;;;;;5.07;1.93;;;;;;;;;;5013319;28;20030;-58
2021/01/14 04:34:08;;;;;;;3.23;1.87;;;;;;;;;;5013371;28;20434;-57
2021/01/14 04:36:35;;;;;;;13.50;2.47;;;;;;;;;;5013240;28;20089;-57
2021/01/14 04:39:02;;;;;;;12.40;2.93;;;;;;;;;;5014422;28;20053;-58
2021/01/14 04:41:31;;;;;;;3.97;1.90;;;;;;;;;;5013174;28;20113;-58
2021/01/14 04:43:59;;;;;;;5.43;2.40;;;;;;;;;;5012951;28;20038;-59
2021/01/14 04:46:28;;;;;;;9.43;2.67;;;;;;;;;;5013011;28;20025;-58
2021/01/14 04:48:55;;;;;;;9.23;2.57;;;;;;;;;;5013067;28;20026;-57
2021/01/14 04:51:25;;;;;;;4.77;2.33;;;;;;;;;;5013126;28;20022;-57
2021/01/14 04:53:51;;;;;;;5.87;2.20;;;;;;;;;;5012974;28;20026;-57
2021/01/14 04:56:19;;;;;;;5.83;2.10;;;;;;;;;;5013001;28;20056;-57
2021/01/14 04:58:46;;;;;;;5.77;2.50;;;;;;;;;;5013045;28;20021;-57
2021/01/14 05:01:13;;;;;;;8.60;3.40;;;;;;;;;;5013058;28;20038;-57
2021/01/14 05:03:40;;;;;;;7.07;2.47;;;;;;;;;;5012846;28;20026;-58
2021/01/14 05:06:07;;;;;;;12.30;2.60;;;;;;;;;;5012859;28;20026;-58
2021/01/14 05:08:34;;;;;;;10.50;3.00;;;;;;;;;;5012887;28;20026;-58
2021/01/14 05:11:01;;;;;;;6.80;2.83;;;;;;;;;;5012769;28;20535;-58
2021/01/14 05:13:31;;;;;;;5.83;1.93;;;;;;;;;;5012865;28;20225;-58
2021/01/14 05:15:58;;;;;;;4.83;1.83;;;;;;;;;;5013924;28;20056;-58
2021/01/14 05:18:25;;;;;;;6.93;2.70;;;;;;;;;;5016797;28;20053;-58
2021/01/14 05:20:52;;;;;;;5.67;2.57;;;;;;;;;;5016721;28;20112;-58
2021/01/14 05:23:21;;;;;;;11.60;2.73;;;;;;;;;;5016625;28;20495;-58
2021/01/14 05:25:57;;;;;;;6.00;2.37;;;;;;;;;;5016713;28;20037;-58
2021/01/14 05:28:25;;;;;;;7.67;2.60;;;;;;;;;;5016679;28;20480;-58
2021/01/14 05:30:55;;;;;;;5.93;2.60;;;;;;;;;;5016495;28;20026;-58
2021/01/14 05:33:25;;;;;;;5.73;2.20;;;;;;;;;;5016435;28;20026;-58
2021/01/14 05:35:52;;;;;;;5.43;2.43;;;;;;;;;;5016475;28;20392;-58
2021/01/14 05:38:23;;;;;;;5.53;2.17;;;;;;;;;;5017598;28;20037;-58
2021/01/14 05:43:48;;;;;;;15.03;4.70;;;;;;;;;;5016587;28;20341;-58
2021/01/14 05:46:16;;;;;;;8.70;3.20;;;;;;;;;;5016292;28;20083;-58
2021/01/14 05:48:43;;;;;;;5.47;2.20;;;;;;;;;;5016313;28;20018;-58
2021/01/14 05:51:26;;;;;;;4.53;2.13;;;;;;;;;;5016502;28;20172;-57
2021/01/14 05:53:54;;;;;;;3.90;2.00;;;;;;;;;;5016200;28;20022;-58
2021/01/14 05:56:33;;;;;;;8.43;3.40;;;;;;;;;;5016091;28;20029;-58
2021/01/14 05:59:00;;;;;;;5.43;2.77;;;;;;;;;;5016398;28;20034;-57
2021/01/14 06:01:27;;;;;;;4.23;2.07;;;;;;;;;;5015949;28;20026;-58
2021/01/14 06:03:54;;;;;;;4.77;2.40;;;;;;;;;;5015905;28;20354;-58
2021/01/14 06:06:21;;;;;;;4.73;2.10;;;;;;;;;;5015778;28;20080;-57
2021/01/14 06:08:48;;;;;;;5.80;2.60;;;;;;;;;;5015880;28;20112;-57
2021/01/14 06:11:22;;;;;;;3.30;1.80;;;;;;;;;;5015844;28;20393;-58
2021/01/14 06:13:49;;;;;;;9.45;3.28;;;;;;;;;;5015764;28;20022;-57
2021/01/14 06:16:17;;;;;;;3.70;1.60;;;;;;;;;;5015758;28;20033;-58
2021/01/14 06:19:02;;;;;;;5.23;1.97;;;;;;;;;;5015703;28;20048;-57
2021/01/14 06:21:45;;;;;;;4.20;1.80;;;;;;;;;;5015632;28;20488;-57
2021/01/14 06:24:24;;;;;;;6.80;2.20;;;;;;;;;;5015546;28;20038;-57
2021/01/14 06:26:52;;;;;;;14.60;2.07;;;;;;;;;;5015225;28;20034;-57
2021/01/14 06:29:24;;;;;;;3.27;1.47;;;;;;;;;;5015392;28;20101;-57
2021/01/14 06:31:51;;;;;;;4.53;2.20;;;;;;;;;;5015372;28;20026;-58
2021/01/14 06:34:20;;;;;;;3.77;1.57;;;;;;;;;;5015469;28;20058;-57
2021/01/14 06:36:48;;;;;;;5.97;1.60;;;;;;;;;;5015556;28;20030;-58
2021/01/14 06:39:16;;;;;;;3.37;1.80;;;;;;;;;;5016490;28;20046;-57
2021/01/14 06:41:45;;;;;;;9.77;2.17;;;;;;;;;;5015436;28;20504;-57
2021/01/14 06:44:15;;;;;;;4.57;1.83;;;;;;;;;;5014964;28;20292;-57
2021/01/14 06:46:43;;;;;;;3.10;1.27;;;;;;;;;;5015257;28;20018;-57
2021/01/14 06:49:14;;;;;;;5.07;1.43;;;;;;;;;;5015403;28;20433;-57
2021/01/14 06:51:57;;;;;;;2.50;1.00;;;;;;;;;;5015078;28;20563;-57
2021/01/14 06:54:25;;;;;;;6.33;1.40;;;;;;;;;;5014982;28;20260;-57
2021/01/14 06:56:59;;;;;;;3.23;1.50;;;;;;;;;;5014926;28;20734;-57
2021/01/14 06:59:26;;;;;;;3.37;1.37;;;;;;;;;;5014886;28;20342;-58
2021/01/14 07:02:16;;;;;;;1.83;1.00;;;;;;;;;;5014825;28;20030;-57
2021/01/14 07:04:42;;;;;;;2.37;1.17;;;;;;;;;;5004795;28;20299;-57
2021/01/14 07:07:29;;;;;;;3.63;1.50;;;;;;;;;;5014619;28;20274;-57
2021/01/14 07:10:09;;;;;;;3.00;1.53;;;;;;;;;;5014654;28;20259;-57
2021/01/14 07:12:39;;;;;;;4.93;1.60;;;;;;;;;;5014658;28;20262;-57
2021/01/14 07:15:10;;;;;;;3.00;1.57;;;;;;;;;;5014682;28;20240;-57
2021/01/14 07:17:41;;;;;;;3.13;1.50;;;;;;;;;;5014571;28;20309;-57
2021/01/14 07:20:09;;;;;;;3.30;1.30;;;;;;;;;;5014541;28;20595;-57
2021/01/14 07:22:38;;;;;;;2.70;1.37;;;;;;;;;;5014476;28;20282;-57
2021/01/14 07:25:05;;;;;;;2.23;1.00;;;;;;;;;;5014311;28;20291;-57
2021/01/14 07:27:35;;;;;;;1.80;1.10;;;;;;;;;;5014367;28;20251;-57
2021/01/14 07:30:02;;;;;;;1.57;0.97;;;;;;;;;;5014287;28;20263;-57
2021/01/14 07:32:52;;;;;;;2.30;1.30;;;;;;;;;;5014288;28;20252;-57
2021/01/14 07:35:50;;;;;;;1.97;1.00;;;;;;;;;;5004299;28;20346;-57
2021/01/14 07:38:17;;;;;;;2.73;1.10;;;;;;;;;;4999154;28;20370;-57
2021/01/14 07:40:46;;;;;;;2.27;1.33;;;;;;;;;;4994539;28;20276;-57
2021/01/14 07:43:14;;;;;;;3.27;1.37;;;;;;;;;;4994481;28;20263;-57
2021/01/14 07:45:41;;;;;;;3.87;1.10;;;;;;;;;;4994220;28;20316;-57
2021/01/14 07:48:24;;;;;;;2.17;1.27;;;;;;;;;;4994369;28;20318;-57
2021/01/14 07:50:52;;;;;;;1.87;1.07;;;;;;;;;;4994422;28;20280;-57
2021/01/14 07:53:19;;;;;;;1.83;1.07;;;;;;;;;;4994405;28;20260;-57
2021/01/14 07:55:46;;;;;;;2.57;1.13;;;;;;;;;;4994166;28;20287;-57
2021/01/14 07:58:15;;;;;;;3.87;1.37;;;;;;;;;;4994174;28;20260;-57
2021/01/14 08:00:42;;;;;;;1.80;1.03;;;;;;;;;;4994224;28;20740;-57
2021/01/14 08:03:10;;;;;;;2.87;1.10;;;;;;;;;;4994159;28;20263;-57
2021/01/14 08:06:01;;;;;;;4.13;1.30;;;;;;;;;;4993986;28;20287;-57
2021/01/14 08:08:29;;;;;;;1.40;0.97;;;;;;;;;;4994052;28;20264;-57
2021/01/14 08:11:19;;;;;;;1.63;0.90;;;;;;;;;;4994000;28;20244;-57
2021/01/14 08:14:06;;;;;;;1.53;0.80;;;;;;;;;;4993898;28;20640;-57
2021/01/14 08:16:34;;;;;;;3.23;1.23;;;;;;;;;;4993901;28;20759;-57
2021/01/14 08:19:17;;;;;;;2.57;1.27;;;;;;;;;;4993990;28;20335;-57
2021/01/14 08:21:45;;;;;;;2.77;1.03;;;;;;;;;;4993858;28;20257;-57
2021/01/14 08:24:12;;;;;;;2.80;1.10;;;;;;;;;;4994093;28;20288;-57
2021/01/14 08:26:52;;;;;;;5.67;1.70;;;;;;;;;;4993664;28;20658;-57
2021/01/14 08:29:31;;;;;;;2.90;1.20;;;;;;;;;;4993627;28;20306;-57
2021/01/14 08:31:58;;;;;;;2.63;1.67;;;;;;;;;;4993760;28;20252;-57
2021/01/14 08:34:26;;;;;;;3.10;1.30;;;;;;;;;;4993606;28;20252;-57
2021/01/14 08:36:56;;;;;;;4.90;1.67;;;;;;;;;;4993667;28;20241;-57
2021/01/14 08:39:24;;;;;;;4.53;1.20;;;;;;;;;;5003599;28;20325;-57
2021/01/14 08:41:52;;;;;;;2.67;1.37;;;;;;;;;;5013494;28;20254;-57
2021/01/14 08:44:23;;;;;;;2.40;1.23;;;;;;;;;;5013063;28;20279;-57
2021/01/14 08:46:51;;;;;;;4.23;1.60;;;;;;;;;;5013171;28;20252;-57
2021/01/14 08:49:19;;;;;;;3.77;1.60;;;;;;;;;;5013161;28;20265;-57
2021/01/14 08:51:46;;;;;;;4.23;1.87;;;;;;;;;;5013146;28;20244;-57
2021/01/14 08:54:13;;;;;;;5.60;1.97;;;;;;;;;;5013022;28;20731;-57
2021/01/14 08:56:40;;;;;;;3.17;1.60;;;;;;;;;;5013009;28;20650;-57
2021/01/14 08:59:14;;;;;;;4.13;1.70;;;;;;;;;;5013086;28;20259;-57
2021/01/14 09:01:40;;;;;;;3.67;1.57;;;;;;;;;;5013115;28;20251;-57
2021/01/14 09:04:08;;;;;;;2.60;1.50;;;;;;;;;;5012852;28;20287;-57
2021/01/14 09:06:40;;;;;;;2.13;1.20;;;;;;;;;;5012962;28;20619;-57
2021/01/14 09:09:09;;;;;;;2.27;1.20;;;;;;;;;;5013019;28;20243;-57
2021/01/14 09:11:36;;;;;;;1.90;1.20;;;;;;;;;;5013005;28;20252;-57
2021/01/14 09:14:08;;;;;;;2.30;1.20;;;;;;;;;;5012849;28;20615;-57
2021/01/14 09:16:35;;;;;;;2.23;1.30;;;;;;;;;;5012851;28;20251;-57
2021/01/14 09:19:02;;;;;;;2.80;1.37;;;;;;;;;;5012829;28;20350;-57
2021/01/14 09:21:35;;;;;;;2.93;1.60;;;;;;;;;;5012789;28;20306;-57
2021/01/14 09:24:07;;;;;;;1.90;1.23;;;;;;;;;;5012658;28;20287;-57
2021/01/14 09:26:38;;;;;;;2.20;1.40;;;;;;;;;;5012680;28;20262;-57
2021/01/14 09:29:06;;;;;;;2.00;1.30;;;;;;;;;;5012715;28;20271;-57
2021/01/14 09:31:36;;;;;;;2.53;1.30;;;;;;;;;;5012758;28;20255;-57
2021/01/14 09:34:03;;;;;;;8.80;4.30;;;;;;;;;;5012755;28;20251;-57
2021/01/14 09:36:33;;;;;;;10.70;3.80;;;;;;;;;;5012571;28;20243;-57
2021/01/14 09:39:01;;;;;;;12.43;4.37;;;;;;;;;;5013785;28;20283;-57
2021/01/14 09:41:29;;;;;;;5.67;2.87;;;;;;;;;;5012677;28;20255;-57
2021/01/14 09:44:00;;;;;;;6.37;2.77;;;;;;;;;;5012523;28;20733;-57
2021/01/14 09:46:27;;;;;;;6.87;1.90;;;;;;;;;;5012540;28;20626;-57
2021/01/14 09:48:59;;;;;;;2.77;1.20;;;;;;;;;;5012624;28;20243;-57
2021/01/14 09:51:26;;;;;;;3.33;1.70;;;;;;;;;;5012467;28;20270;-57
2021/01/14 09:53:52;;;;;;;4.03;1.80;;;;;;;;;;5012618;28;20279;-57
2021/01/14 09:56:21;;;;;;;5.87;2.80;;;;;;;;;;5012431;28;20298;-57
2021/01/14 09:58:49;;;;;;;3.43;2.10;;;;;;;;;;5012544;28;20598;-57
2021/01/14 10:01:18;;;;;;;2.63;1.30;;;;;;;;;;5012505;28;20263;-57
2021/01/14 10:03:48;;;;;;;3.47;1.77;;;;;;;;;;5016010;28;20334;-57
2021/01/14 10:06:16;;;;;;;2.93;1.57;;;;;;;;;;5015826;28;20267;-57
2021/01/14 10:08:48;;;;;;;6.37;2.00;;;;;;;;;;5015839;28;20244;-57
2021/01/14 10:11:15;;;;;;;4.57;1.63;;;;;;;;;;5015943;28;20626;-57
2021/01/14 10:13:52;;;;;;;2.57;1.20;;;;;;;;;;5015789;28;20762;-57
2021/01/14 10:16:22;;;;;;;2.67;1.57;;;;;;;;;;5016026;28;20344;-57
2021/01/14 10:18:50;;;;;;;3.90;1.93;;;;;;;;;;5015704;28;20657;-57
2021/01/14 10:21:25;;;;;;;4.20;1.50;;;;;;;;;;5015688;28;20243;-57
2021/01/14 10:23:52;;;;;;;4.47;1.87;;;;;;;;;;5015520;28;20286;-57
2021/01/14 10:26:25;;;;;;;5.40;1.73;;;;;;;;;;5015486;28;20306;-57
2021/01/14 10:28:52;;;;;;;3.87;1.50;;;;;;;;;;5015860;28;20328;-57
2021/01/14 10:31:32;;;;;;;3.77;1.80;;;;;;;;;;5015457;28;20260;-57
2021/01/14 10:33:59;;;;;;;3.20;1.70;;;;;;;;;;5015515;28;20808;-57
2021/01/14 10:36:43;;;;;;;5.30;2.00;;;;;;;;;;5015395;28;20659;-57
2021/01/14 10:39:09;;;;;;;3.90;1.87;;;;;;;;;;5016662;28;20322;-57
2021/01/14 10:41:36;;;;;;;2.70;1.47;;;;;;;;;;5015590;28;20331;-57
2021/01/14 10:44:06;;;;;;;3.83;1.57;;;;;;;;;;5015078;28;20330;-57
2021/01/14 10:46:33;;;;;;;3.83;1.83;;;;;;;;;;5015138;28;20338;-57
2021/01/14 10:49:10;;;;;;;3.57;1.77;;;;;;;;;;5015176;28;20258;-57
2021/01/14 10:51:39;;;;;;;4.00;1.97;;;;;;;;;;5015073;28;20267;-57
2021/01/14 10:54:05;;;;;;;3.70;1.80;;;;;;;;;;5014990;28;20677;-57
2021/01/14 10:56:32;;;;;;;2.90;1.63;;;;;;;;;;5015234;28;20622;-57
2021/01/14 10:59:06;;;;;;;3.30;1.57;;;;;;;;;;5014913;28;20650;-57
2021/01/14 11:01:33;;;;;;;2.90;1.37;;;;;;;;;;5014999;28;20259;-57
2021/01/14 11:04:15;;;;;;;3.27;1.50;;;;;;;;;;5014691;28;20635;-57
2021/01/14 11:06:42;;;;;;;2.40;1.40;;;;;;;;;;5014765;28;20608;-57
2021/01/14 11:09:11;;;;;;;5.13;1.63;;;;;;;;;;5014874;28;20740;-57
2021/01/14 11:11:37;;;;;;;2.60;1.30;;;;;;;;;;5015061;28;20363;-57
2021/01/14 11:14:04;;;;;;;3.70;1.40;;;;;;;;;;5013638;28;20247;-57
2021/01/14 11:16:31;;;;;;;4.10;1.00;;;;;;;;;;5014539;28;20247;-57
2021/01/14 11:18:58;;;;;;;3.10;1.50;;;;;;;;;;5014557;28;20250;-57
2021/01/14 11:21:33;;;;;;;2.50;1.23;;;;;;;;;;5014590;28;20247;-57
2021/01/14 11:24:01;;;;;;;1.90;1.05;;;;;;;;;;5014340;28;20275;-57
2021/01/14 11:26:28;;;;;;;1.83;1.03;;;;;;;;;;5014421;28;20076;-57
2021/01/14 11:28:55;;;;;;;3.30;1.30;;;;;;;;;;5014394;28;20337;-57
2021/01/14 11:31:23;;;;;;;4.43;1.60;;;;;;;;;;5014417;28;20256;-57
2021/01/14 11:33:50;;;;;;;5.03;1.63;;;;;;;;;;5014373;28;20343;-57
2021/01/14 11:36:21;;;;;;;3.00;1.40;;;;;;;;;;5014206;28;20258;-57
2021/01/14 11:38:49;;;;;;;2.47;1.00;;;;;;;;;;5015454;28;20342;-58
2021/01/14 11:41:19;;;;;;;2.23;1.20;;;;;;;;;;5014232;28;20330;-57
2021/01/14 11:43:46;;;;;;;1.67;1.00;;;;;;;;;;5014130;28;20478;-57
2021/01/14 11:46:20;;;;;;;2.13;1.30;;;;;;;;;;5013946;28;20259;-57
2021/01/14 11:48:47;;;;;;;2.10;1.40;;;;;;;;;;5014057;28;20248;-57
2021/01/14 11:51:14;;;;;;;3.50;1.60;;;;;;;;;;5014031;28;20784;-57
2021/01/14 11:53:41;;;;;;;2.83;1.20;;;;;;;;;;5013860;28;20777;-57
2021/01/14 11:56:07;;;;;;;3.13;1.53;;;;;;;;;;5013886;28;20248;-57
2021/01/14 11:58:37;;;;;;;2.63;1.60;;;;;;;;;;5013853;28;20256;-57
2021/01/14 12:01:04;;;;;;;1.63;1.00;;;;;;;;;;5013787;28;20607;-57
2021/01/14 12:03:33;;;;;;;2.30;1.20;;;;;;;;;;5013697;28;20738;-57
2021/01/14 12:05:59;;;;;;;3.73;1.30;;;;;;;;;;5013630;28;20350;-57
2021/01/14 12:08:26;;;;;;;3.40;1.77;;;;;;;;;;5013687;28;20244;-57
2021/01/14 12:10:53;;;;;;;2.77;1.33;;;;;;;;;;5013650;28;20342;-57
2021/01/14 12:13:20;;;;;;;2.13;1.17;;;;;;;;;;5013620;28;20250;-57
2021/01/14 12:15:47;;;;;;;2.30;1.20;;;;;;;;;;5013534;28;20321;-57
2021/01/14 12:18:13;;;;;;;2.43;1.40;;;;;;;;;;5013541;28;20634;-57
2021/01/14 12:20:40;;;;;;;2.83;1.43;;;;;;;;;;5013535;28;20269;-57
2021/01/14 12:23:07;;;;;;;2.40;1.30;;;;;;;;;;5013542;28;20247;-57
2021/01/14 12:25:34;;;;;;;3.40;1.40;;;;;;;;;;5013031;28;20381;-57
2021/01/14 12:28:00;;;;;;;2.50;1.63;;;;;;;;;;5013342;28;20338;-57
2021/01/14 12:30:27;;;;;;;2.30;1.30;;;;;;;;;;5013290;28;20306;-57
2021/01/14 12:32:54;;;;;;;4.93;1.50;;;;;;;;;;5013345;28;20330;-57
2021/01/14 12:35:21;;;;;;;2.50;1.30;;;;;;;;;;5013214;28;20255;-57
2021/01/14 12:37:48;;;;;;;1.67;1.10;;;;;;;;;;5013265;28;20654;-57
2021/01/14 12:40:14;;;;;;;1.73;1.00;;;;;;;;;;5014482;28;20353;-57
2021/01/14 12:42:41;;;;;;;2.10;1.13;;;;;;;;;;5013174;28;20298;-57
2021/01/14 12:45:08;;;;;;;2.20;1.67;;;;;;;;;;5012954;28;20762;-57
2021/01/14 12:47:35;;;;;;;2.87;1.40;;;;;;;;;;5013247;28;20262;-57
2021/01/14 12:50:02;;;;;;;2.87;1.33;;;;;;;;;;5013123;28;20263;-57
2021/01/14 12:52:29;;;;;;;4.83;1.60;;;;;;;;;;5013194;28;20251;-57
2021/01/14 12:54:56;;;;;;;3.30;1.80;;;;;;;;;;5013036;28;20260;-57
2021/01/14 12:57:23;;;;;;;3.17;1.90;;;;;;;;;;5013103;28;20628;-57
2021/01/14 12:59:49;;;;;;;3.00;1.73;;;;;;;;;;5013003;28;20666;-57
2021/01/14 13:02:16;;;;;;;3.20;1.50;;;;;;;;;;5013060;28;20792;-57
2021/01/14 13:04:43;;;;;;;3.93;1.97;;;;;;;;;;5012869;28;20287;-57
2021/01/14 13:07:10;;;;;;;3.30;1.80;;;;;;;;;;5013160;28;20595;-57
2021/01/14 13:09:36;;;;;;;2.43;1.23;;;;;;;;;;5012972;28;20604;-57
2021/01/14 13:12:03;;;;;;;2.87;1.57;;;;;;;;;;5012942;28;20580;-57
2021/01/14 13:14:30;;;;;;;3.33;1.70;;;;;;;;;;5012885;28;20256;-57
2021/01/14 13:16:57;;;;;;;4.37;1.77;;;;;;;;;;5012856;28;20256;-57
2021/01/14 13:19:23;;;;;;;2.83;1.57;;;;;;;;;;5013138;28;20630;-57
2021/01/14 13:21:50;;;;;;;6.23;1.77;;;;;;;;;;5012860;28;20266;-57
2021/01/14 13:24:19;;;;;;;9.47;2.40;;;;;;;;;;5012696;28;20758;-57
2021/01/14 13:26:45;;;;;;;5.83;1.50;;;;;;;;;;5012721;28;20283;-57
2021/01/14 13:29:19;;;;;;;3.03;1.83;;;;;;;;;;5012658;28;20274;-57
2021/01/14 13:31:47;;;;;;;3.97;2.00;;;;;;;;;;5012813;28;20266;-57
2021/01/14 13:34:14;;;;;;;4.37;1.90;;;;;;;;;;5012629;28;20268;-57
2021/01/14 13:36:42;;;;;;;4.73;2.23;;;;;;;;;;5013195;28;20265;-57
2021/01/14 13:39:09;;;;;;;5.57;1.53;;;;;;;;;;5017764;28;20723;-57
2021/01/14 13:41:39;;;;;;;5.67;1.83;;;;;;;;;;5016473;28;20290;-57
2021/01/14 13:44:07;;;;;;;11.47;3.03;;;;;;;;;;5016319;28;20282;-57
2021/01/14 13:46:38;;;;;;;4.13;1.87;;;;;;;;;;5016195;28;20259;-57
2021/01/14 13:49:06;;;;;;;4.93;1.80;;;;;;;;;;5016380;28;20731;-57
2021/01/14 13:51:34;;;;;;;4.20;1.80;;;;;;;;;;5016273;28;20252;-57
2021/01/14 13:54:01;;;;;;;4.73;1.73;;;;;;;;;;5016235;28;20255;-57
2021/01/14 13:56:28;;;;;;;4.70;1.90;;;;;;;;;;5016095;28;20262;-57
2021/01/14 13:58:55;;;;;;;6.30;2.13;;;;;;;;;;5016145;28;20255;-57
2021/01/14 14:01:31;;;;;;;2.87;1.70;;;;;;;;;;5016033;28;20251;-57
2021/01/14 14:03:59;;;;;;;4.40;2.00;;;;;;;;;;5015898;28;20283;-57
2021/01/14 14:06:35;;;;;;;3.27;2.00;;;;;;;;;;5015940;28;20255;-57
2021/01/14 14:09:06;;;;;;;2.93;1.77;;;;;;;;;;5015928;28;20313;-57
2021/01/14 14:11:33;;;;;;;6.00;2.13;;;;;;;;;;5015340;28;20339;-57
2021/01/14 14:14:00;;;;;;;3.73;2.27;;;;;;;;;;5015731;28;20279;-57
2021/01/14 14:16:27;;;;;;;4.17;2.10;;;;;;;;;;5015680;28;20247;-57
2021/01/14 14:18:54;;;;;;;4.70;2.63;;;;;;;;;;5016000;28;20276;-58
2021/01/14 14:21:21;;;;;;;7.07;3.20;;;;;;;;;;5015657;28;20247;-57
2021/01/14 14:23:48;;;;;;;8.80;3.60;;;;;;;;;;5015656;28;20306;-57
2021/01/14 14:26:17;;;;;;;6.60;4.07;;;;;;;;;;5015511;28;20317;-58
2021/01/14 14:28:44;;;;;;;7.07;4.93;;;;;;;;;;5015478;28;20263;-57
2021/01/14 14:31:11;;;;;;;7.70;4.80;;;;;;;;;;5015571;28;20275;-57
2021/01/14 14:33:39;;;;;;;9.47;5.20;;;;;;;;;;5015738;28;20335;-57
2021/01/14 14:36:06;;;;;;;5.83;3.87;;;;;;;;;;5014157;28;20782;-58
2021/01/14 14:38:33;;;;;;;7.77;4.33;;;;;;;;;;5015461;28;20256;-58
2021/01/14 14:41:01;;;;;;;3.60;2.27;;;;;;;;;;5016642;28;20295;-58
2021/01/14 14:43:28;;;;;;;3.33;2.23;;;;;;;;;;5015279;28;20267;-57
2021/01/14 14:45:55;;;;;;;3.27;2.00;;;;;;;;;;5015019;28;20287;-57
2021/01/14 14:48:21;;;;;;;6.13;2.63;;;;;;;;;;5014982;28;20606;-57
2021/01/14 14:50:48;;;;;;;8.20;2.63;;;;;;;;;;5015274;28;20255;-57
2021/01/14 14:53:15;;;;;;;6.63;3.53;;;;;;;;;;5015217;28;20255;-57
2021/01/14 14:55:42;;;;;;;5.80;4.00;;;;;;;;;;5014932;28;20251;-57